Time;durP1;ratioP1;P1;durP2;ratioP2;P2;SDS_P1;SDS_P2;PMS_P1;PMS_P2;Temp;Humidity;BMP_temperature;BMP_pressure;BME280_temperature;BME280_humidity;BME280_pressure;Samples;Min_cycle;Max_cycle;Signal;HPM_P1;HPM_P2
2022/03/16 00:00:36;0.00;0.00;0.62;0.00;0.00;0.62;8.27;6.70;;;24.10;21.60;;;;;;2227693;62;20388;-52
2022/03/16 00:03:21;0.00;0.00;0.62;0.00;0.00;0.62;8.50;6.87;;;24.10;21.60;;;;;;2227919;62;20439;-50
2022/03/16 00:06:06;0.00;0.00;0.62;0.00;0.00;0.62;9.57;7.50;;;24.10;21.60;;;;;;2228148;62;20408;-57
2022/03/16 00:08:50;0.00;0.00;0.62;0.00;0.00;0.62;9.50;7.73;;;24.10;21.60;;;;;;2227686;62;20373;-62
2022/03/16 00:11:35;0.00;0.00;0.62;0.00;0.00;0.62;8.40;7.50;;;24.10;21.60;;;;;;2228313;62;20391;-52
2022/03/16 00:14:19;0.00;0.00;0.62;0.00;0.00;0.62;8.23;6.77;;;24.10;21.60;;;;;;2227774;62;20361;-51
2022/03/16 00:17:06;0.00;0.00;0.62;0.00;0.00;0.62;9.50;8.43;;;24.00;21.60;;;;;;2227760;62;20429;-51
2022/03/16 00:19:51;0.00;0.00;0.62;0.00;0.00;0.62;8.53;7.53;;;24.00;21.60;;;;;;2227838;62;20405;-52
2022/03/16 00:22:36;0.00;0.00;0.62;0.00;0.00;0.62;9.40;8.20;;;24.00;21.60;;;;;;2227642;62;20392;-57
2022/03/16 00:25:23;0.00;0.00;0.62;0.00;0.00;0.62;9.43;8.53;;;24.00;21.60;;;;;;2227509;62;20751;-51
2022/03/16 00:28:09;0.00;0.00;0.62;0.00;0.00;0.62;9.67;7.83;;;24.00;21.60;;;;;;2228226;62;20380;-54
2022/03/16 00:30:54;0.00;0.00;0.62;0.00;0.00;0.62;9.53;8.17;;;24.00;21.60;;;;;;2226731;62;20488;-54
2022/03/16 00:33:40;0.00;0.00;0.62;0.00;0.00;0.62;9.80;8.10;;;24.00;21.60;;;;;;2228159;62;20816;-54
2022/03/16 00:36:25;0.00;0.00;0.62;0.00;0.00;0.62;8.83;7.83;;;23.90;21.50;;;;;;2227441;62;20372;-52
2022/03/16 00:39:09;0.00;0.00;0.62;0.00;0.00;0.62;8.80;8.00;;;23.90;21.50;;;;;;2227890;62;20392;-55
2022/03/16 00:41:55;0.00;0.00;0.62;0.00;0.00;0.62;8.50;7.70;;;23.90;21.50;;;;;;2227722;62;20608;-53
2022/03/16 00:44:40;0.00;0.00;0.62;0.00;0.00;0.62;9.53;7.60;;;23.80;21.40;;;;;;2227245;62;20413;-55
2022/03/16 00:47:25;0.00;0.00;0.62;0.00;0.00;0.62;9.87;8.83;;;23.80;21.40;;;;;;2227849;62;20368;-52
2022/03/16 00:50:11;0.00;0.00;0.62;0.00;0.00;0.62;9.87;8.23;;;23.80;21.40;;;;;;2227541;62;20866;-54
2022/03/16 00:52:57;0.00;0.00;0.62;0.00;0.00;0.62;12.27;9.40;;;23.80;21.40;;;;;;2226907;62;20408;-53
2022/03/16 00:55:42;0.00;0.00;0.62;0.00;0.00;0.62;9.70;8.27;;;23.80;21.40;;;;;;2228165;62;20420;-56
2022/03/16 00:58:27;0.00;0.00;0.62;0.00;0.00;0.62;10.30;8.40;;;23.70;21.40;;;;;;2227624;62;20460;-54
2022/03/16 01:01:12;0.00;0.00;0.62;0.00;0.00;0.62;10.80;8.13;;;23.70;21.40;;;;;;2227244;62;20436;-56
2022/03/16 01:03:57;0.00;0.00;0.62;0.00;0.00;0.62;13.57;8.30;;;23.70;21.40;;;;;;2228057;62;20933;-54
2022/03/16 01:06:43;0.00;0.00;0.62;0.00;0.00;0.62;9.40;7.10;;;23.70;21.40;;;;;;2228071;62;20974;-57
2022/03/16 01:09:27;0.00;0.00;0.62;0.00;0.00;0.62;8.80;7.90;;;23.60;21.30;;;;;;2227503;62;20396;-52
2022/03/16 01:12:12;0.00;0.00;0.62;0.00;0.00;0.62;9.10;8.20;;;23.70;21.40;;;;;;2227910;62;20380;-56
2022/03/16 01:14:57;0.00;0.00;0.62;0.00;0.00;0.62;10.37;8.37;;;23.60;21.30;;;;;;2227311;62;20364;-53
2022/03/16 01:17:42;0.00;0.00;0.62;0.00;0.00;0.62;9.13;8.23;;;23.60;21.30;;;;;;2228057;62;20781;-55
2022/03/16 01:20:26;0.00;0.00;0.62;0.00;0.00;0.62;8.57;7.70;;;23.50;21.20;;;;;;2227171;62;20396;-58
2022/03/16 01:23:12;0.00;0.00;0.62;0.00;0.00;0.62;9.53;8.57;;;23.60;21.30;;;;;;2227555;62;20399;-55
2022/03/16 01:25:57;0.00;0.00;0.62;0.00;0.00;0.62;8.63;7.73;;;23.50;21.20;;;;;;2227914;62;20952;-56
2022/03/16 01:28:41;0.00;0.00;0.62;0.00;0.00;0.62;9.20;8.30;;;23.50;21.20;;;;;;2227308;62;20420;-54
2022/03/16 01:31:26;0.00;0.00;0.62;0.00;0.00;0.62;12.00;8.33;;;23.50;21.20;;;;;;2227759;62;20953;-53
2022/03/16 01:34:13;0.00;0.00;0.62;0.00;0.00;0.62;10.13;8.43;;;23.40;21.20;;;;;;2227772;62;20939;-58
2022/03/16 01:36:58;0.00;0.00;0.62;0.00;0.00;0.62;9.90;8.90;;;23.40;21.20;;;;;;2227717;62;20445;-57
2022/03/16 01:39:44;0.00;0.00;0.62;0.00;0.00;0.62;9.43;8.37;;;23.40;21.20;;;;;;2228052;62;20832;-52
2022/03/16 01:42:29;0.00;0.00;0.62;0.00;0.00;0.62;11.17;7.83;;;23.40;21.20;;;;;;2227273;62;20376;-56
2022/03/16 01:45:15;0.00;0.00;0.62;0.00;0.00;0.62;12.50;9.13;;;23.40;21.30;;;;;;2227102;62;20415;-52
2022/03/16 01:48:00;0.00;0.00;0.62;0.00;0.00;0.62;9.60;8.60;;;23.30;21.30;;;;;;2228032;62;20472;-55
2022/03/16 01:50:45;0.00;0.00;0.62;0.00;0.00;0.62;9.50;8.47;;;23.30;21.30;;;;;;2227666;62;20472;-57
2022/03/16 01:53:30;0.00;0.00;0.62;0.00;0.00;0.62;10.47;9.07;;;23.30;21.30;;;;;;2227746;62;20380;-54
2022/03/16 01:56:17;0.00;0.00;0.62;0.00;0.00;0.62;10.30;9.30;;;23.30;21.30;;;;;;2228418;62;20780;-55
2022/03/16 01:59:02;0.00;0.00;0.62;0.00;0.00;0.62;11.50;9.40;;;23.30;21.40;;;;;;2227481;62;20380;-53
2022/03/16 02:01:47;0.00;0.00;0.62;0.00;0.00;0.62;10.97;9.90;;;23.30;21.40;;;;;;2228084;62;20583;-53
2022/03/16 02:04:31;0.00;0.00;0.62;0.00;0.00;0.62;10.67;9.53;;;23.30;21.40;;;;;;2228091;62;20392;-52
2022/03/16 02:07:16;0.00;0.00;0.62;0.00;0.00;0.62;11.50;9.30;;;23.20;21.30;;;;;;2228301;62;20843;-54
2022/03/16 02:10:05;0.00;0.00;0.62;0.00;0.00;0.62;9.80;8.87;;;23.20;21.30;;;;;;2228396;62;20464;-54
2022/03/16 02:12:52;0.00;0.00;0.62;0.00;0.00;0.62;11.40;10.03;;;23.20;21.30;;;;;;2228223;62;21060;-53
2022/03/16 02:15:37;0.00;0.00;0.62;0.00;0.00;0.62;10.80;9.80;;;23.20;21.30;;;;;;2228025;62;20428;-54
2022/03/16 02:18:22;0.00;0.00;0.62;0.00;0.00;0.62;12.00;10.40;;;23.20;21.30;;;;;;2228461;62;20868;-52
2022/03/16 02:21:07;0.00;0.00;0.62;0.00;0.00;0.62;10.43;9.37;;;23.20;21.30;;;;;;2227660;62;20391;-54
2022/03/16 02:23:53;0.00;0.00;0.62;0.00;0.00;0.62;11.00;9.90;;;23.20;21.80;;;;;;2228417;62;20808;-52
2022/03/16 02:26:38;0.00;0.00;0.62;0.00;0.00;0.62;10.93;9.93;;;23.10;21.20;;;;;;2228298;62;20376;-56
2022/03/16 02:29:23;0.00;0.00;0.62;0.00;0.00;0.62;10.43;9.33;;;23.10;21.20;;;;;;2227866;62;20473;-52
2022/03/16 02:32:09;0.00;0.00;0.62;0.00;0.00;0.62;13.30;10.87;;;23.10;21.20;;;;;;2228255;62;20372;-53
2022/03/16 02:34:53;0.00;0.00;0.62;0.00;0.00;0.62;11.50;10.40;;;23.10;21.20;;;;;;2228060;62;20925;-54
2022/03/16 02:37:39;0.00;0.00;0.62;0.00;0.00;0.62;11.70;10.50;;;23.00;21.10;;;;;;2227832;62;20368;-58
2022/03/16 02:40:25;0.00;0.00;0.62;0.00;0.00;0.62;13.00;11.67;;;23.00;21.10;;;;;;2228299;62;20409;-55
2022/03/16 02:43:09;0.00;0.00;0.62;0.00;0.00;0.62;13.73;11.00;;;23.00;21.20;;;;;;2227871;62;20407;-51
2022/03/16 02:45:54;0.00;0.00;0.62;0.00;0.00;0.62;12.47;11.10;;;23.00;21.20;;;;;;2228003;62;20408;-55
2022/03/16 02:48:38;0.00;0.00;0.62;0.00;0.00;0.62;12.93;11.17;;;22.90;21.10;;;;;;2228382;62;20964;-53
2022/03/16 02:51:23;0.00;0.00;0.62;0.00;0.00;0.62;12.63;11.33;;;22.90;21.20;;;;;;2227672;62;20928;-53
2022/03/16 02:54:08;0.00;0.00;0.62;0.00;0.00;0.62;12.40;11.20;;;22.90;21.20;;;;;;2228461;62;20364;-55
2022/03/16 02:56:54;0.00;0.00;0.62;0.00;0.00;0.62;10.83;9.83;;;22.90;21.20;;;;;;2227984;62;20443;-55
2022/03/16 02:59:38;0.00;0.00;0.62;0.00;0.00;0.62;11.37;9.93;;;22.90;21.20;;;;;;2227612;62;20415;-54
2022/03/16 03:02:22;0.00;0.00;0.62;0.00;0.00;0.62;10.97;9.87;;;22.90;21.20;;;;;;2228419;62;20376;-56
2022/03/16 03:05:08;0.00;0.00;0.62;0.00;0.00;0.62;10.53;9.43;;;22.90;21.20;;;;;;2227974;62;20460;-52
2022/03/16 03:07:52;0.00;0.00;0.62;0.00;0.00;0.62;13.17;10.07;;;22.80;21.10;;;;;;2228170;62;20377;-54
2022/03/16 03:10:37;0.00;0.00;0.62;0.00;0.00;0.62;10.43;9.40;;;22.80;21.10;;;;;;2228162;62;20400;-56
2022/03/16 03:13:24;0.00;0.00;0.62;0.00;0.00;0.62;10.40;9.30;;;22.80;21.10;;;;;;2227738;62;21167;-55
2022/03/16 03:16:09;0.00;0.00;0.62;0.00;0.00;0.62;11.80;9.93;;;22.80;21.20;;;;;;2228172;62;20928;-54
2022/03/16 03:18:53;0.00;0.00;0.62;0.00;0.00;0.62;12.60;9.97;;;22.80;21.70;;;;;;2227865;62;20376;-55
2022/03/16 03:21:38;0.00;0.00;0.62;0.00;0.00;0.62;14.10;10.53;;;22.80;21.20;;;;;;2227831;62;20400;-53
2022/03/16 03:24:22;0.00;0.00;0.62;0.00;0.00;0.62;10.37;9.30;;;22.80;21.20;;;;;;2228070;62;20456;-52
2022/03/16 03:27:06;0.00;0.00;0.62;0.00;0.00;0.62;11.00;9.60;;;22.80;21.20;;;;;;2228015;62;20372;-52
2022/03/16 03:29:52;0.00;0.00;0.62;0.00;0.00;0.62;11.37;9.13;;;22.70;21.10;;;;;;2227584;62;20364;-52
2022/03/16 03:32:37;0.00;0.00;0.62;0.00;0.00;0.62;9.90;8.90;;;22.70;21.10;;;;;;2228309;62;20400;-53
2022/03/16 03:35:22;0.00;0.00;0.62;0.00;0.00;0.62;9.20;8.03;;;22.70;21.20;;;;;;2227647;62;20812;-55
2022/03/16 03:38:07;0.00;0.00;0.62;0.00;0.00;0.62;9.90;9.00;;;22.70;21.20;;;;;;2227979;62;20373;-56
2022/03/16 03:40:51;0.00;0.00;0.62;0.00;0.00;0.62;10.50;8.77;;;22.70;21.20;;;;;;2228043;62;20392;-58
2022/03/16 03:43:36;0.00;0.00;0.62;0.00;0.00;0.62;9.67;8.20;;;22.70;21.20;;;;;;2227684;62;20403;-51
2022/03/16 03:46:22;0.00;0.00;0.62;0.00;0.00;0.62;11.03;8.80;;;22.70;21.20;;;;;;2228248;62;20783;-58
2022/03/16 03:49:06;0.00;0.00;0.62;0.00;0.00;0.62;11.50;10.20;;;22.70;21.20;;;;;;2227905;62;20945;-55
2022/03/16 03:51:51;0.00;0.00;0.62;0.00;0.00;0.62;9.03;8.13;;;22.60;21.20;;;;;;2227967;62;20448;-56
2022/03/16 03:54:36;0.00;0.00;0.62;0.00;0.00;0.62;9.53;8.10;;;22.60;21.20;;;;;;2228253;62;20423;-55
2022/03/16 03:57:21;0.00;0.00;0.62;0.00;0.00;0.62;9.77;8.70;;;22.60;21.20;;;;;;2227956;62;20957;-55
2022/03/16 04:00:07;0.00;0.00;0.62;0.00;0.00;0.62;10.27;9.03;;;22.60;21.20;;;;;;2228864;62;20392;-53
2022/03/16 04:02:57;0.00;0.00;0.62;0.00;0.00;0.62;9.10;8.20;;;22.60;21.20;;;;;;2228519;62;20847;-54
2022/03/16 04:05:42;0.00;0.00;0.62;0.00;0.00;0.62;10.33;8.60;;;22.60;21.30;;;;;;2227770;62;20423;-51
2022/03/16 04:08:27;0.00;0.00;0.62;0.00;0.00;0.62;8.40;7.43;;;22.60;21.30;;;;;;2227807;62;20444;-56
2022/03/16 04:11:12;0.00;0.00;0.62;0.00;0.00;0.62;10.00;8.10;;;22.50;21.20;;;;;;2227420;62;20456;-53
2022/03/16 04:13:57;0.00;0.00;0.62;0.00;0.00;0.62;8.33;7.53;;;22.50;21.20;;;;;;2227802;62;20409;-52
2022/03/16 04:16:41;0.00;0.00;0.62;0.00;0.00;0.62;7.53;6.70;;;22.50;21.20;;;;;;2228070;62;20371;-56
2022/03/16 04:19:27;0.00;0.00;0.62;0.00;0.00;0.62;9.83;7.70;;;22.40;21.20;;;;;;2227625;62;20412;-58
2022/03/16 04:22:12;0.00;0.00;0.62;0.00;0.00;0.62;8.57;7.67;;;22.40;21.20;;;;;;2227487;62;20440;-54
2022/03/16 04:24:57;0.00;0.00;0.62;0.00;0.00;0.62;7.40;6.67;;;22.40;21.20;;;;;;2227992;62;20399;-57
2022/03/16 04:27:41;0.00;0.00;0.62;0.00;0.00;0.62;7.57;6.87;;;22.40;21.20;;;;;;2227339;62;20372;-58
2022/03/16 04:30:25;0.00;0.00;0.62;0.00;0.00;0.62;7.03;6.37;;;22.30;21.20;;;;;;2227847;62;20782;-58
2022/03/16 04:33:10;0.00;0.00;0.62;0.00;0.00;0.62;7.00;5.53;;;22.30;21.20;;;;;;2227889;62;20371;-56
2022/03/16 04:35:56;0.00;0.00;0.62;0.00;0.00;0.62;7.73;6.47;;;22.30;21.20;;;;;;2227791;62;20368;-51
2022/03/16 04:38:41;0.00;0.00;0.62;0.00;0.00;0.62;7.50;6.37;;;22.30;21.20;;;;;;2228053;62;20507;-50
2022/03/16 04:41:26;0.00;0.00;0.62;0.00;0.00;0.62;6.53;5.93;;;22.30;21.20;;;;;;2227590;62;20387;-52
2022/03/16 04:44:11;0.00;0.00;0.62;0.00;0.00;0.62;6.70;6.07;;;22.30;21.20;;;;;;2227564;62;20409;-53
2022/03/16 04:46:55;0.00;0.00;0.62;0.00;0.00;0.62;6.07;5.47;;;22.20;21.10;;;;;;2228118;62;20424;-54
2022/03/16 04:49:40;0.00;0.00;0.62;0.00;0.00;0.62;6.50;5.90;;;22.20;21.10;;;;;;2227202;62;20406;-52
2022/03/16 04:52:26;0.00;0.00;0.62;0.00;0.00;0.62;6.47;5.87;;;22.20;21.10;;;;;;2228057;62;20384;-50
2022/03/16 04:55:11;0.00;0.00;0.62;0.00;0.00;0.62;6.67;5.87;;;22.20;21.10;;;;;;2227024;62;20502;-50
2022/03/16 04:57:55;0.00;0.00;0.62;0.00;0.00;0.62;6.03;5.43;;;22.20;21.10;;;;;;2227663;62;20448;-53
2022/03/16 05:00:40;0.00;0.00;0.62;0.00;0.00;0.62;5.83;5.27;;;22.10;21.10;;;;;;2227708;62;20383;-53
2022/03/16 05:03:25;0.00;0.00;0.62;0.00;0.00;0.62;5.53;5.00;;;22.10;21.10;;;;;;2227514;62;20986;-52
2022/03/16 05:06:09;0.00;0.00;0.62;0.00;0.00;0.62;6.70;5.50;;;22.10;21.10;;;;;;2227645;62;20384;-55
2022/03/16 05:08:55;0.00;0.00;0.62;0.00;0.00;0.62;5.60;5.10;;;22.00;21.00;;;;;;2228051;62;20452;-52
2022/03/16 05:11:42;0.00;0.00;0.62;0.00;0.00;0.62;6.32;5.72;;;22.00;21.00;;;;;;2226839;62;20465;-55
2022/03/16 05:14:27;0.00;0.00;0.62;0.00;0.00;0.62;7.20;6.50;;;21.90;20.90;;;;;;2227973;62;20243;-51
2022/03/16 05:17:11;0.00;0.00;0.62;0.00;0.00;0.62;5.30;4.80;;;21.90;20.90;;;;;;2227494;62;20412;-53
2022/03/16 05:19:56;0.00;0.00;0.62;0.00;0.00;0.62;4.83;4.43;;;21.90;20.90;;;;;;2227383;62;20407;-50
2022/03/16 05:22:42;0.00;0.00;0.62;0.00;0.00;0.62;6.47;5.60;;;21.80;20.90;;;;;;2228089;62;20475;-55
2022/03/16 05:25:32;0.00;0.00;0.62;0.00;0.00;0.62;5.63;5.13;;;21.80;20.90;;;;;;2228412;62;20436;-55
2022/03/16 05:28:17;0.00;0.00;0.62;0.00;0.00;0.62;5.20;4.70;;;21.80;21.00;;;;;;2228307;62;20408;-54
2022/03/16 05:31:02;0.00;0.00;0.62;0.00;0.00;0.62;5.50;4.50;;;21.70;21.00;;;;;;2228388;62;20964;-51
2022/03/16 05:33:47;0.00;0.00;0.62;0.00;0.00;0.62;4.70;4.23;;;21.70;21.00;;;;;;2227908;62;20778;-58
2022/03/16 05:36:32;0.00;0.00;0.62;0.00;0.00;0.62;4.80;4.30;;;21.70;21.10;;;;;;2228594;62;20441;-54
2022/03/16 05:39:17;0.00;0.00;0.62;0.00;0.00;0.62;5.33;4.87;;;21.70;21.10;;;;;;2228285;62;20841;-57
2022/03/16 05:42:04;0.00;0.00;0.62;0.00;0.00;0.62;5.30;4.80;;;21.70;21.10;;;;;;2228312;62;20448;-51
2022/03/16 05:44:54;0.00;0.00;0.62;0.00;0.00;0.62;5.00;4.50;;;21.70;21.10;;;;;;2228380;62;20448;-58
2022/03/16 05:47:40;0.00;0.00;0.62;0.00;0.00;0.62;4.93;4.40;;;21.70;21.10;;;;;;2228124;62;20571;-57
2022/03/16 05:50:28;0.00;0.00;0.62;0.00;0.00;0.62;5.03;4.53;;;21.70;21.10;;;;;;2228062;62;20395;-58
2022/03/16 05:53:14;0.00;0.00;0.62;0.00;0.00;0.62;5.73;5.13;;;21.70;21.10;;;;;;2228624;62;20380;-58
2022/03/16 05:55:59;0.00;0.00;0.62;0.00;0.00;0.62;5.80;4.53;;;21.70;21.20;;;;;;2227807;62;20917;-59
2022/03/16 05:58:45;0.00;0.00;0.62;0.00;0.00;0.62;5.13;4.63;;;21.70;21.10;;;;;;2228506;62;20425;-57
2022/03/16 06:01:30;0.00;0.00;0.62;0.00;0.00;0.62;4.93;4.40;;;21.70;21.20;;;;;;2227827;62;20396;-56
2022/03/16 06:04:15;0.00;0.00;0.62;0.00;0.00;0.62;4.33;3.93;;;21.60;21.10;;;;;;2228008;62;20435;-59
2022/03/16 06:06:59;0.00;0.00;0.62;0.00;0.00;0.62;4.80;4.33;;;21.60;21.20;;;;;;2228648;62;20933;-60
2022/03/16 06:09:44;0.00;0.00;0.62;0.00;0.00;0.62;4.30;3.90;;;21.70;21.30;;;;;;2228024;62;20425;-59
2022/03/16 06:12:29;0.00;0.00;0.62;0.00;0.00;0.62;4.33;3.93;;;21.60;21.30;;;;;;2228161;62;20368;-60
2022/03/16 06:15:15;0.00;0.00;0.62;0.00;0.00;0.62;3.90;3.50;;;21.60;21.20;;;;;;2228501;62;20417;-59
2022/03/16 06:18:00;0.00;0.00;0.62;0.00;0.00;0.62;3.60;3.27;;;21.60;21.30;;;;;;2228148;62;20376;-54
2022/03/16 06:20:45;0.00;0.00;0.62;0.00;0.00;0.62;4.00;3.27;;;21.60;21.30;;;;;;2228176;62;20423;-52
2022/03/16 06:23:30;0.00;0.00;0.62;0.00;0.00;0.62;3.53;3.23;;;21.60;21.30;;;;;;2228342;62;20469;-54
2022/03/16 06:26:15;0.00;0.00;0.62;0.00;0.00;0.62;3.80;3.40;;;21.60;21.30;;;;;;2228052;62;20379;-60
2022/03/16 06:29:00;0.00;0.00;0.62;0.00;0.00;0.62;3.80;2.90;;;21.60;21.30;;;;;;2228245;62;20785;-59
2022/03/16 06:31:46;0.00;0.00;0.62;0.00;0.00;0.62;3.50;3.20;;;21.60;21.30;;;;;;2227995;62;20396;-58
2022/03/16 06:34:30;0.00;0.00;0.62;0.00;0.00;0.62;4.07;3.23;;;21.60;21.40;;;;;;2227944;62;20429;-56
2022/03/16 06:37:15;0.00;0.00;0.62;0.00;0.00;0.62;3.40;2.53;;;21.60;21.40;;;;;;2228324;62;20951;-57
2022/03/16 06:39:59;0.00;0.00;0.62;0.00;0.00;0.62;3.43;3.13;;;21.60;21.40;;;;;;2227761;62;20392;-56
2022/03/16 06:42:50;0.00;0.00;0.62;0.00;0.00;0.62;3.63;3.07;;;21.60;21.40;;;;;;2228118;62;20368;-57
2022/03/16 06:45:35;0.00;0.00;0.62;0.00;0.00;0.62;2.50;2.30;;;21.60;21.40;;;;;;2228279;62;20381;-55
2022/03/16 06:48:23;0.00;0.00;0.62;0.00;0.00;0.62;3.23;2.77;;;21.70;21.40;;;;;;2227925;62;20379;-58
2022/03/16 06:51:08;0.00;0.00;0.62;0.00;0.00;0.62;3.00;2.70;;;21.70;21.50;;;;;;2228204;62;20404;-58
2022/03/16 06:53:53;0.00;0.00;0.62;0.00;0.00;0.62;3.73;2.80;;;21.70;21.50;;;;;;2228137;62;20914;-58
2022/03/16 06:56:38;0.00;0.00;0.62;0.00;0.00;0.62;2.73;2.53;;;21.70;21.40;;;;;;2228006;62;20440;-58
2022/03/16 06:59:23;0.00;0.00;0.62;0.00;0.00;0.62;2.57;2.37;;;21.70;21.40;;;;;;2228289;62;20384;-59
2022/03/16 07:02:07;0.00;0.00;0.62;0.00;0.00;0.62;2.37;2.17;;;21.70;21.50;;;;;;2228018;62;20480;-60
2022/03/16 07:04:53;0.00;0.00;0.62;0.00;0.00;0.62;2.20;2.00;;;21.70;21.50;;;;;;2227876;62;20395;-57
2022/03/16 07:07:38;0.00;0.00;0.62;0.00;0.00;0.62;3.13;2.50;;;21.70;21.50;;;;;;2228241;62;20516;-58
2022/03/16 07:10:22;0.00;0.00;0.62;0.00;0.00;0.62;2.57;2.23;;;21.70;21.50;;;;;;2227448;62;20395;-56
2022/03/16 07:13:09;0.00;0.00;0.62;0.00;0.00;0.62;3.40;2.70;;;21.70;21.50;;;;;;2228189;62;20421;-55
2022/03/16 07:15:54;0.00;0.00;0.62;0.00;0.00;0.62;2.60;2.40;;;21.70;21.50;;;;;;2228030;62;20877;-57
2022/03/16 07:18:39;0.00;0.00;0.62;0.00;0.00;0.62;3.00;2.50;;;21.70;21.50;;;;;;2227429;62;20368;-58
2022/03/16 07:21:26;0.00;0.00;0.62;0.00;0.00;0.62;2.57;2.20;;;21.80;21.50;;;;;;2228364;62;20396;-58
2022/03/16 07:24:10;0.00;0.00;0.62;0.00;0.00;0.62;3.10;2.67;;;21.70;21.50;;;;;;2227669;62;20405;-59
2022/03/16 07:26:55;0.00;0.00;0.62;0.00;0.00;0.62;2.60;2.40;;;21.80;21.50;;;;;;2228009;62;20812;-58
2022/03/16 07:29:40;0.00;0.00;0.62;0.00;0.00;0.62;2.47;2.13;;;21.80;21.50;;;;;;2228072;62;20521;-58
2022/03/16 07:32:25;0.00;0.00;0.62;0.00;0.00;0.62;2.20;1.90;;;21.80;21.50;;;;;;2227575;62;20375;-60
2022/03/16 07:35:09;0.00;0.00;0.62;0.00;0.00;0.62;2.50;2.13;;;21.80;21.50;;;;;;2228190;62;20372;-59
2022/03/16 07:37:57;0.00;0.00;0.62;0.00;0.00;0.62;2.27;2.07;;;21.80;21.50;;;;;;2227833;62;20428;-60
2022/03/16 07:40:42;0.00;0.00;0.62;0.00;0.00;0.62;2.50;2.10;;;21.80;21.50;;;;;;2227302;62;20400;-59
2022/03/16 07:43:27;0.00;0.00;0.62;0.00;0.00;0.62;2.50;2.30;;;21.80;21.50;;;;;;2228248;62;20841;-60
2022/03/16 07:46:12;0.00;0.00;0.62;0.00;0.00;0.62;1.83;1.57;;;21.90;21.50;;;;;;2227759;62;20371;-59
2022/03/16 07:48:56;0.00;0.00;0.62;0.00;0.00;0.62;2.90;2.20;;;21.90;21.50;;;;;;2228002;62;20396;-57
2022/03/16 07:51:41;0.00;0.00;0.62;0.00;0.00;0.62;2.77;2.30;;;21.90;21.50;;;;;;2228208;62;20486;-60
2022/03/16 07:54:27;0.00;0.00;0.62;0.00;0.00;0.62;2.20;2.00;;;21.90;21.50;;;;;;2227550;62;20787;-58
2022/03/16 07:57:12;0.00;0.00;0.62;0.00;0.00;0.62;2.30;2.10;;;21.90;21.50;;;;;;2228262;62;20454;-57
2022/03/16 07:59:57;0.00;0.00;0.62;0.00;0.00;0.62;2.47;2.27;;;22.00;21.50;;;;;;2227829;62;20395;-57
2022/03/16 08:02:43;0.00;0.00;0.62;0.00;0.00;0.62;2.40;2.10;;;22.00;21.50;;;;;;2227723;62;20381;-59
2022/03/16 08:05:28;0.00;0.00;0.62;0.00;0.00;0.62;2.10;1.80;;;22.00;21.50;;;;;;2227957;62;20416;-57
2022/03/16 08:08:13;0.00;0.00;0.62;0.00;0.00;0.62;2.47;2.00;;;22.00;21.50;;;;;;2227791;62;20453;-59
2022/03/16 08:10:59;0.00;0.00;0.62;0.00;0.00;0.62;2.03;1.70;;;22.00;21.50;;;;;;2227535;62;20400;-56
2022/03/16 08:13:44;0.00;0.00;0.62;0.00;0.00;0.62;2.30;2.00;;;22.00;21.50;;;;;;2228094;62;20792;-57
2022/03/16 08:16:28;0.00;0.00;0.62;0.00;0.00;0.62;2.87;1.80;;;22.00;21.50;;;;;;2227689;62;20788;-59
2022/03/16 08:19:15;0.00;0.00;0.62;0.00;0.00;0.62;2.57;2.37;;;22.00;21.50;;;;;;2227870;62;20834;-58
2022/03/16 08:21:59;0.00;0.00;0.62;0.00;0.00;0.62;2.33;1.90;;;22.10;21.50;;;;;;2228066;62;20391;-59
2022/03/16 08:24:43;0.00;0.00;0.62;0.00;0.00;0.62;2.20;1.80;;;22.10;21.50;;;;;;2227625;62;20395;-58
2022/03/16 08:27:30;0.00;0.00;0.62;0.00;0.00;0.62;1.73;1.37;;;22.10;21.50;;;;;;2228209;62;20376;-56
2022/03/16 08:30:16;0.00;0.00;0.62;0.00;0.00;0.62;2.17;1.97;;;22.10;21.50;;;;;;2227510;62;20400;-57
2022/03/16 08:33:00;0.00;0.00;0.62;0.00;0.00;0.62;2.40;1.60;;;22.10;21.50;;;;;;2227777;62;20376;-57
2022/03/16 08:35:45;0.00;0.00;0.62;0.00;0.00;0.62;2.37;1.80;;;22.20;21.50;;;;;;2228048;62;20368;-58
2022/03/16 08:38:30;0.00;0.00;0.62;0.00;0.00;0.62;2.10;1.90;;;22.20;21.50;;;;;;2227635;62;20828;-60
2022/03/16 08:41:15;0.00;0.00;0.62;0.00;0.00;0.62;2.23;1.77;;;22.20;21.50;;;;;;2227980;62;20411;-59
2022/03/16 08:44:02;0.00;0.00;0.62;0.00;0.00;0.62;1.93;1.63;;;22.20;21.50;;;;;;2227920;62;20436;-57
2022/03/16 08:46:47;0.00;0.00;0.62;0.00;0.00;0.62;2.00;1.67;;;22.20;21.50;;;;;;2227593;62;20833;-59
2022/03/16 08:49:31;0.00;0.00;0.62;0.00;0.00;0.62;2.50;1.80;;;22.20;21.50;;;;;;2228047;62;20913;-58
2022/03/16 08:52:16;0.00;0.00;0.62;0.00;0.00;0.62;2.20;1.90;;;22.20;21.50;;;;;;2227510;62;20901;-59
2022/03/16 08:55:01;0.00;0.00;0.62;0.00;0.00;0.62;2.33;2.07;;;22.30;21.50;;;;;;2227246;62;20367;-59
2022/03/16 08:57:45;0.00;0.00;0.62;0.00;0.00;0.62;2.47;2.17;;;22.30;21.50;;;;;;2228055;62;20375;-58
2022/03/16 09:00:32;0.00;0.00;0.62;0.00;0.00;0.62;2.13;1.83;;;22.30;21.50;;;;;;2228159;62;20427;-59
2022/03/16 09:03:17;0.00;0.00;0.62;0.00;0.00;0.62;2.20;1.73;;;22.30;21.50;;;;;;2228194;62;20775;-58
2022/03/16 09:06:02;0.00;0.00;0.62;0.00;0.00;0.62;2.10;1.70;;;22.30;21.50;;;;;;2228881;62;20375;-59
2022/03/16 09:08:47;0.00;0.00;0.62;0.00;0.00;0.62;2.37;1.87;;;22.30;21.50;;;;;;2228070;62;20367;-60
2022/03/16 09:11:34;0.00;0.00;0.62;0.00;0.00;0.62;2.53;1.73;;;22.40;21.50;;;;;;2228686;62;20932;-60
2022/03/16 09:14:18;0.00;0.00;0.62;0.00;0.00;0.62;1.97;1.67;;;22.40;21.50;;;;;;2228200;62;20367;-58
2022/03/16 09:17:06;0.00;0.00;0.62;0.00;0.00;0.62;1.80;1.50;;;22.40;21.50;;;;;;2228206;62;20778;-59
2022/03/16 09:19:52;0.00;0.00;0.62;0.00;0.00;0.62;2.10;1.80;;;22.40;21.50;;;;;;2228183;62;20897;-59
2022/03/16 09:22:37;0.00;0.00;0.62;0.00;0.00;0.62;1.80;1.57;;;22.40;21.50;;;;;;2228260;62;20425;-57
2022/03/16 09:25:24;0.00;0.00;0.62;0.00;0.00;0.62;2.57;1.60;;;22.40;21.50;;;;;;2228202;62;20802;-57
2022/03/16 09:28:08;0.00;0.00;0.62;0.00;0.00;0.62;1.97;1.63;;;22.40;21.50;;;;;;2228548;62;20430;-58
2022/03/16 09:30:53;0.00;0.00;0.62;0.00;0.00;0.62;1.93;1.73;;;22.50;21.50;;;;;;2227702;62;20396;-58
2022/03/16 09:33:40;0.00;0.00;0.62;0.00;0.00;0.62;2.10;1.90;;;22.50;21.50;;;;;;2228753;62;20898;-57
2022/03/16 09:36:26;0.00;0.00;0.62;0.00;0.00;0.62;2.10;1.63;;;22.50;21.50;;;;;;2228138;62;20419;-57
2022/03/16 09:39:10;0.00;0.00;0.62;0.00;0.00;0.62;2.10;1.80;;;22.50;21.50;;;;;;2228199;62;20371;-58
2022/03/16 09:41:56;0.00;0.00;0.62;0.00;0.00;0.62;2.40;1.77;;;22.50;21.50;;;;;;2228483;62;20392;-58
2022/03/16 09:44:41;0.00;0.00;0.62;0.00;0.00;0.62;1.80;1.40;;;22.50;21.50;;;;;;2228118;62;20472;-55
2022/03/16 09:47:27;0.00;0.00;0.62;0.00;0.00;0.62;1.90;1.60;;;22.60;21.50;;;;;;2228433;62;20916;-57
2022/03/16 09:50:13;0.00;0.00;0.62;0.00;0.00;0.62;2.00;1.67;;;22.60;21.50;;;;;;2228350;62;20944;-56
2022/03/16 09:52:58;0.00;0.00;0.62;0.00;0.00;0.62;1.93;1.43;;;22.60;21.50;;;;;;2227759;62;20432;-54
2022/03/16 09:55:42;0.00;0.00;0.62;0.00;0.00;0.62;1.80;1.60;;;22.60;21.50;;;;;;2228527;62;20371;-57
2022/03/16 09:58:27;0.00;0.00;0.62;0.00;0.00;0.62;2.13;1.73;;;22.60;21.50;;;;;;2228044;62;20416;-56
2022/03/16 10:01:12;0.00;0.00;0.62;0.00;0.00;0.62;2.17;1.83;;;22.60;21.50;;;;;;2228168;62;20396;-59
2022/03/16 10:04:06;0.00;0.00;0.62;0.00;0.00;0.62;2.10;1.70;;;22.60;21.50;;;;;;2228369;62;20395;-57
2022/03/16 10:06:52;0.00;0.00;0.62;0.00;0.00;0.62;1.73;1.50;;;22.60;21.50;;;;;;2228527;62;20403;-58
2022/03/16 10:15:44;0.00;0.00;0.62;0.00;0.00;0.62;2.03;1.63;;;22.70;21.60;;;;;;2228171;62;20774;-59
2022/03/16 10:18:32;0.00;0.00;0.62;0.00;0.00;0.62;1.90;1.50;;;22.70;21.60;;;;;;2228652;62;20944;-56
2022/03/16 10:21:17;0.00;0.00;0.62;0.00;0.00;0.62;2.07;1.80;;;22.70;21.60;;;;;;2227485;62;20424;-59
2022/03/16 10:24:03;0.00;0.00;0.62;0.00;0.00;0.62;1.70;1.30;;;22.70;21.60;;;;;;2228219;62;20835;-58
2022/03/16 10:26:51;0.00;0.00;0.62;0.00;0.00;0.62;2.10;1.37;;;22.70;21.70;;;;;;2228525;62;20856;-58
2022/03/16 10:29:36;0.00;0.00;0.62;0.00;0.00;0.62;2.10;1.90;;;22.70;21.70;;;;;;2227955;62;20372;-58
2022/03/16 10:32:22;0.00;0.00;0.62;0.00;0.00;0.62;2.50;2.03;;;22.70;21.70;;;;;;2228504;62;20364;-58
2022/03/16 10:35:08;0.00;0.00;0.62;0.00;0.00;0.62;2.37;1.93;;;22.80;21.80;;;;;;2228414;62;20394;-57
2022/03/16 10:38:07;0.00;0.00;0.62;0.00;0.00;0.62;2.37;2.03;;;22.80;21.80;;;;;;2228063;62;20367;-58
2022/03/16 10:40:55;0.00;0.00;0.62;0.00;0.00;0.62;2.23;1.70;;;22.80;21.80;;;;;;2228262;62;20388;-55
2022/03/16 10:46:46;0.00;0.00;0.62;0.00;0.00;0.62;2.10;1.63;;;22.90;22.40;;;;;;2228164;62;20463;-57
2022/03/16 10:49:34;0.00;0.00;0.62;0.00;0.00;0.62;1.63;1.33;;;22.90;21.90;;;;;;2228119;62;20767;-58
2022/03/16 10:52:19;0.00;0.00;0.62;0.00;0.00;0.62;2.00;1.60;;;22.90;21.90;;;;;;2227607;62;20929;-57
2022/03/16 10:55:07;0.00;0.00;0.62;0.00;0.00;0.62;2.03;1.50;;;22.90;21.90;;;;;;2228371;62;20781;-57
2022/03/16 10:57:54;0.00;0.00;0.62;0.00;0.00;0.62;1.90;1.60;;;23.00;22.00;;;;;;2227938;62;20364;-58
2022/03/16 11:00:41;0.00;0.00;0.62;0.00;0.00;0.62;1.90;1.60;;;23.00;21.90;;;;;;2227798;62;20392;-57